sensor_id;sensor_type;location;lat;lon;timestamp;P1;durP1;ratioP1;P2;durP2;ratioP2
21833;SDS011;11079;51.092;3.458;2022-11-22T00:00:29;2.65;;;0.77;;
21833;SDS011;11079;51.092;3.458;2022-11-22T00:02:55;1.77;;;1.08;;
21833;SDS011;11079;51.092;3.458;2022-11-22T00:05:20;1.40;;;0.70;;
21833;SDS011;11079;51.092;3.458;2022-11-22T00:07:47;1.25;;;0.70;;
21833;SDS011;11079;51.092;3.458;2022-11-22T00:10:13;1.27;;;0.82;;
21833;SDS011;11079;51.092;3.458;2022-11-22T00:12:39;1.63;;;0.75;;
21833;SDS011;11079;51.092;3.458;2022-11-22T00:15:06;1.23;;;0.80;;
21833;SDS011;11079;51.092;3.458;2022-11-22T00:17:32;1.23;;;0.68;;
21833;SDS011;11079;51.092;3.458;2022-11-22T00:19:58;1.90;;;0.70;;
21833;SDS011;11079;51.092;3.458;2022-11-22T00:22:24;2.53;;;0.60;;
21833;SDS011;11079;51.092;3.458;2022-11-22T00:24:50;1.17;;;0.70;;
21833;SDS011;11079;51.092;3.458;2022-11-22T00:27:17;1.17;;;0.80;;
21833;SDS011;11079;51.092;3.458;2022-11-22T00:29:43;0.98;;;0.57;;
21833;SDS011;11079;51.092;3.458;2022-11-22T00:32:08;2.05;;;0.93;;
21833;SDS011;11079;51.092;3.458;2022-11-22T00:34:34;0.90;;;0.60;;
21833;SDS011;11079;51.092;3.458;2022-11-22T00:37:00;1.45;;;0.60;;
21833;SDS011;11079;51.092;3.458;2022-11-22T00:39:25;1.55;;;0.80;;
21833;SDS011;11079;51.092;3.458;2022-11-22T00:41:51;1.65;;;0.60;;
21833;SDS011;11079;51.092;3.458;2022-11-22T00:44:16;1.42;;;0.80;;
21833;SDS011;11079;51.092;3.458;2022-11-22T00:46:42;1.98;;;1.02;;
21833;SDS011;11079;51.092;3.458;2022-11-22T00:49:07;1.60;;;0.60;;
21833;SDS011;11079;51.092;3.458;2022-11-22T00:51:33;0.80;;;0.52;;
21833;SDS011;11079;51.092;3.458;2022-11-22T00:53:59;0.90;;;0.60;;
21833;SDS011;11079;51.092;3.458;2022-11-22T00:56:24;0.80;;;0.50;;
21833;SDS011;11079;51.092;3.458;2022-11-22T00:58:50;1.50;;;0.60;;
21833;SDS011;11079;51.092;3.458;2022-11-22T01:01:15;1.40;;;0.70;;
21833;SDS011;11079;51.092;3.458;2022-11-22T01:03:41;1.25;;;0.60;;
21833;SDS011;11079;51.092;3.458;2022-11-22T01:06:06;1.85;;;0.60;;
21833;SDS011;11079;51.092;3.458;2022-11-22T01:08:32;1.88;;;0.80;;
21833;SDS011;11079;51.092;3.458;2022-11-22T01:10:58;1.38;;;0.90;;
21833;SDS011;11079;51.092;3.458;2022-11-22T01:13:25;1.67;;;0.70;;
21833;SDS011;11079;51.092;3.458;2022-11-22T01:15:52;1.25;;;0.65;;
21833;SDS011;11079;51.092;3.458;2022-11-22T01:18:18;1.65;;;1.00;;
21833;SDS011;11079;51.092;3.458;2022-11-22T01:20:44;0.80;;;0.60;;
21833;SDS011;11079;51.092;3.458;2022-11-22T01:23:09;1.65;;;0.40;;
21833;SDS011;11079;51.092;3.458;2022-11-22T01:25:35;1.77;;;0.52;;
21833;SDS011;11079;51.092;3.458;2022-11-22T01:28:00;0.77;;;0.70;;
21833;SDS011;11079;51.092;3.458;2022-11-22T01:30:26;2.25;;;0.80;;
21833;SDS011;11079;51.092;3.458;2022-11-22T01:32:51;1.67;;;1.00;;
21833;SDS011;11079;51.092;3.458;2022-11-22T01:35:17;1.33;;;0.60;;
21833;SDS011;11079;51.092;3.458;2022-11-22T01:37:42;1.35;;;0.50;;
21833;SDS011;11079;51.092;3.458;2022-11-22T01:40:08;1.23;;;0.60;;
21833;SDS011;11079;51.092;3.458;2022-11-22T01:42:40;2.50;;;0.73;;
21833;SDS011;11079;51.092;3.458;2022-11-22T01:50:32;0.52;;;0.50;;
21833;SDS011;11079;51.092;3.458;2022-11-22T01:53:03;0.60;;;0.50;;
21833;SDS011;11079;51.092;3.458;2022-11-22T01:55:38;1.13;;;0.55;;
21833;SDS011;11079;51.092;3.458;2022-11-22T01:58:05;2.03;;;0.80;;
21833;SDS011;11079;51.092;3.458;2022-11-22T02:00:32;0.85;;;0.60;;
21833;SDS011;11079;51.092;3.458;2022-11-22T02:02:59;2.22;;;0.60;;
21833;SDS011;11079;51.092;3.458;2022-11-22T02:05:28;1.67;;;0.60;;
21833;SDS011;11079;51.092;3.458;2022-11-22T02:10:39;0.68;;;0.55;;
21833;SDS011;11079;51.092;3.458;2022-11-22T02:13:08;1.92;;;1.15;;
21833;SDS011;11079;51.092;3.458;2022-11-22T02:15:36;1.15;;;0.60;;
21833;SDS011;11079;51.092;3.458;2022-11-22T02:18:03;1.58;;;0.65;;
21833;SDS011;11079;51.092;3.458;2022-11-22T02:20:28;0.60;;;0.50;;
21833;SDS011;11079;51.092;3.458;2022-11-22T02:23:02;1.42;;;0.57;;
21833;SDS011;11079;51.092;3.458;2022-11-22T02:28:06;1.00;;;0.40;;
21833;SDS011;11079;51.092;3.458;2022-11-22T02:30:37;1.13;;;0.65;;
21833;SDS011;11079;51.092;3.458;2022-11-22T02:33:04;1.67;;;0.50;;
21833;SDS011;11079;51.092;3.458;2022-11-22T02:35:30;1.58;;;0.70;;
21833;SDS011;11079;51.092;3.458;2022-11-22T02:37:56;1.38;;;0.60;;
21833;SDS011;11079;51.092;3.458;2022-11-22T02:40:22;1.00;;;0.40;;
21833;SDS011;11079;51.092;3.458;2022-11-22T02:42:57;0.50;;;0.50;;
21833;SDS011;11079;51.092;3.458;2022-11-22T02:45:26;0.55;;;0.32;;
21833;SDS011;11079;51.092;3.458;2022-11-22T02:47:52;0.93;;;0.50;;
21833;SDS011;11079;51.092;3.458;2022-11-22T02:50:17;0.43;;;0.40;;
21833;SDS011;11079;51.092;3.458;2022-11-22T02:52:43;2.28;;;0.50;;
21833;SDS011;11079;51.092;3.458;2022-11-22T02:55:09;0.88;;;0.50;;
21833;SDS011;11079;51.092;3.458;2022-11-22T02:57:34;1.30;;;0.60;;
21833;SDS011;11079;51.092;3.458;2022-11-22T03:00:00;1.75;;;0.68;;
21833;SDS011;11079;51.092;3.458;2022-11-22T03:02:26;0.93;;;0.50;;
21833;SDS011;11079;51.092;3.458;2022-11-22T03:04:51;1.02;;;0.50;;
21833;SDS011;11079;51.092;3.458;2022-11-22T03:07:17;1.52;;;0.60;;
21833;SDS011;11079;51.092;3.458;2022-11-22T03:09:42;0.80;;;0.50;;
21833;SDS011;11079;51.092;3.458;2022-11-22T03:12:08;2.08;;;0.55;;
21833;SDS011;11079;51.092;3.458;2022-11-22T03:14:34;1.27;;;0.60;;
21833;SDS011;11079;51.092;3.458;2022-11-22T03:16:59;0.95;;;0.55;;
21833;SDS011;11079;51.092;3.458;2022-11-22T03:19:25;1.58;;;0.60;;
21833;SDS011;11079;51.092;3.458;2022-11-22T03:21:50;0.85;;;0.47;;
21833;SDS011;11079;51.092;3.458;2022-11-22T03:24:16;1.05;;;0.60;;
21833;SDS011;11079;51.092;3.458;2022-11-22T03:26:47;0.88;;;0.50;;
21833;SDS011;11079;51.092;3.458;2022-11-22T03:29:14;0.82;;;0.50;;
21833;SDS011;11079;51.092;3.458;2022-11-22T03:31:41;1.05;;;0.50;;
21833;SDS011;11079;51.092;3.458;2022-11-22T03:34:06;1.08;;;0.68;;
21833;SDS011;11079;51.092;3.458;2022-11-22T03:36:32;1.38;;;0.50;;
21833;SDS011;11079;51.092;3.458;2022-11-22T03:38:58;1.58;;;0.57;;
21833;SDS011;11079;51.092;3.458;2022-11-22T03:41:23;1.95;;;0.50;;
21833;SDS011;11079;51.092;3.458;2022-11-22T03:43:49;1.25;;;0.70;;
21833;SDS011;11079;51.092;3.458;2022-11-22T03:46:15;1.45;;;0.60;;
21833;SDS011;11079;51.092;3.458;2022-11-22T03:48:43;0.65;;;0.50;;
21833;SDS011;11079;51.092;3.458;2022-11-22T03:51:09;1.02;;;0.50;;
21833;SDS011;11079;51.092;3.458;2022-11-22T03:53:34;1.38;;;0.60;;
21833;SDS011;11079;51.092;3.458;2022-11-22T03:56:00;1.60;;;0.60;;
21833;SDS011;11079;51.092;3.458;2022-11-22T03:58:26;2.17;;;0.80;;
21833;SDS011;11079;51.092;3.458;2022-11-22T04:00:52;1.65;;;0.40;;
21833;SDS011;11079;51.092;3.458;2022-11-22T04:03:18;0.68;;;0.65;;
21833;SDS011;11079;51.092;3.458;2022-11-22T04:05:43;1.08;;;0.52;;
21833;SDS011;11079;51.092;3.458;2022-11-22T04:08:09;0.63;;;0.43;;
21833;SDS011;11079;51.092;3.458;2022-11-22T04:10:35;1.33;;;0.57;;
21833;SDS011;11079;51.092;3.458;2022-11-22T04:13:01;2.55;;;0.75;;
21833;SDS011;11079;51.092;3.458;2022-11-22T04:15:26;0.65;;;0.40;;
21833;SDS011;11079;51.092;3.458;2022-11-22T04:17:52;1.40;;;0.43;;
21833;SDS011;11079;51.092;3.458;2022-11-22T04:20:22;1.45;;;0.60;;
21833;SDS011;11079;51.092;3.458;2022-11-22T04:23:12;1.65;;;0.73;;
21833;SDS011;11079;51.092;3.458;2022-11-22T04:25:40;2.08;;;0.50;;
21833;SDS011;11079;51.092;3.458;2022-11-22T04:28:08;0.50;;;0.40;;
21833;SDS011;11079;51.092;3.458;2022-11-22T04:30:35;0.50;;;0.50;;
21833;SDS011;11079;51.092;3.458;2022-11-22T04:33:19;2.35;;;0.90;;
21833;SDS011;11079;51.092;3.458;2022-11-22T04:35:46;0.93;;;0.60;;
21833;SDS011;11079;51.092;3.458;2022-11-22T04:38:12;0.93;;;0.47;;
21833;SDS011;11079;51.092;3.458;2022-11-22T04:40:39;1.10;;;0.50;;
21833;SDS011;11079;51.092;3.458;2022-11-22T04:43:05;0.55;;;0.43;;
21833;SDS011;11079;51.092;3.458;2022-11-22T04:45:50;1.35;;;0.50;;
21833;SDS011;11079;51.092;3.458;2022-11-22T04:48:16;0.57;;;0.40;;
21833;SDS011;11079;51.092;3.458;2022-11-22T04:50:43;0.60;;;0.32;;
21833;SDS011;11079;51.092;3.458;2022-11-22T04:53:28;1.98;;;0.50;;
21833;SDS011;11079;51.092;3.458;2022-11-22T04:55:54;0.90;;;0.35;;
21833;SDS011;11079;51.092;3.458;2022-11-22T04:58:20;0.70;;;0.40;;
21833;SDS011;11079;51.092;3.458;2022-11-22T05:00:46;1.05;;;0.60;;
21833;SDS011;11079;51.092;3.458;2022-11-22T05:03:12;0.60;;;0.43;;
21833;SDS011;11079;51.092;3.458;2022-11-22T05:05:39;0.30;;;0.30;;
21833;SDS011;11079;51.092;3.458;2022-11-22T05:08:07;0.77;;;0.50;;
21833;SDS011;11079;51.092;3.458;2022-11-22T05:10:33;0.45;;;0.30;;
21833;SDS011;11079;51.092;3.458;2022-11-22T05:13:18;1.00;;;0.43;;
21833;SDS011;11079;51.092;3.458;2022-11-22T05:15:45;0.57;;;0.45;;
21833;SDS011;11079;51.092;3.458;2022-11-22T05:18:11;0.93;;;0.47;;
21833;SDS011;11079;51.092;3.458;2022-11-22T05:20:37;0.50;;;0.40;;
21833;SDS011;11079;51.092;3.458;2022-11-22T05:23:03;0.63;;;0.47;;
21833;SDS011;11079;51.092;3.458;2022-11-22T05:25:47;1.30;;;0.50;;
21833;SDS011;11079;51.092;3.458;2022-11-22T05:28:13;0.95;;;0.40;;
21833;SDS011;11079;51.092;3.458;2022-11-22T05:30:39;0.40;;;0.35;;
21833;SDS011;11079;51.092;3.458;2022-11-22T05:33:05;1.50;;;0.70;;
21833;SDS011;11079;51.092;3.458;2022-11-22T05:35:31;1.63;;;0.50;;
21833;SDS011;11079;51.092;3.458;2022-11-22T05:37:57;0.73;;;0.50;;
21833;SDS011;11079;51.092;3.458;2022-11-22T05:40:23;0.40;;;0.32;;
21833;SDS011;11079;51.092;3.458;2022-11-22T05:42:50;1.23;;;0.30;;
21833;SDS011;11079;51.092;3.458;2022-11-22T05:45:15;0.95;;;0.50;;
21833;SDS011;11079;51.092;3.458;2022-11-22T05:47:41;1.20;;;0.30;;
21833;SDS011;11079;51.092;3.458;2022-11-22T05:50:07;0.73;;;0.50;;
21833;SDS011;11079;51.092;3.458;2022-11-22T05:52:33;0.40;;;0.32;;
21833;SDS011;11079;51.092;3.458;2022-11-22T05:54:58;1.17;;;0.52;;
21833;SDS011;11079;51.092;3.458;2022-11-22T05:57:24;0.50;;;0.40;;
21833;SDS011;11079;51.092;3.458;2022-11-22T05:59:51;0.85;;;0.60;;
21833;SDS011;11079;51.092;3.458;2022-11-22T06:02:17;0.90;;;0.50;;
21833;SDS011;11079;51.092;3.458;2022-11-22T06:04:43;1.58;;;0.57;;
21833;SDS011;11079;51.092;3.458;2022-11-22T06:07:08;0.77;;;0.30;;
21833;SDS011;11079;51.092;3.458;2022-11-22T06:09:34;0.47;;;0.47;;
21833;SDS011;11079;51.092;3.458;2022-11-22T06:12:00;0.60;;;0.40;;
21833;SDS011;11079;51.092;3.458;2022-11-22T06:14:25;1.10;;;0.40;;
21833;SDS011;11079;51.092;3.458;2022-11-22T06:16:51;1.52;;;0.47;;
21833;SDS011;11079;51.092;3.458;2022-11-22T06:19:16;0.70;;;0.40;;
21833;SDS011;11079;51.092;3.458;2022-11-22T06:21:42;1.58;;;0.30;;
21833;SDS011;11079;51.092;3.458;2022-11-22T06:24:08;0.60;;;0.43;;
21833;SDS011;11079;51.092;3.458;2022-11-22T06:26:34;0.50;;;0.30;;
21833;SDS011;11079;51.092;3.458;2022-11-22T06:29:00;0.63;;;0.30;;
21833;SDS011;11079;51.092;3.458;2022-11-22T06:31:26;0.68;;;0.50;;
21833;SDS011;11079;51.092;3.458;2022-11-22T06:33:53;0.65;;;0.45;;
21833;SDS011;11079;51.092;3.458;2022-11-22T06:36:21;0.45;;;0.30;;
21833;SDS011;11079;51.092;3.458;2022-11-22T06:38:48;1.05;;;0.35;;
21833;SDS011;11079;51.092;3.458;2022-11-22T06:41:15;0.60;;;0.50;;
21833;SDS011;11079;51.092;3.458;2022-11-22T06:43:47;1.33;;;0.40;;
21833;SDS011;11079;51.092;3.458;2022-11-22T06:46:14;0.90;;;0.60;;
21833;SDS011;11079;51.092;3.458;2022-11-22T06:48:42;1.35;;;0.60;;
21833;SDS011;11079;51.092;3.458;2022-11-22T06:51:09;0.95;;;0.40;;
21833;SDS011;11079;51.092;3.458;2022-11-22T06:53:40;1.30;;;0.60;;
21833;SDS011;11079;51.092;3.458;2022-11-22T06:56:28;0.20;;;0.20;;
21833;SDS011;11079;51.092;3.458;2022-11-22T06:58:53;0.45;;;0.40;;
21833;SDS011;11079;51.092;3.458;2022-11-22T07:01:20;0.75;;;0.40;;
21833;SDS011;11079;51.092;3.458;2022-11-22T07:03:48;1.90;;;0.45;;
21833;SDS011;11079;51.092;3.458;2022-11-22T07:06:14;0.65;;;0.50;;
21833;SDS011;11079;51.092;3.458;2022-11-22T07:08:41;0.82;;;0.38;;
21833;SDS011;11079;51.092;3.458;2022-11-22T07:11:11;0.75;;;0.30;;
21833;SDS011;11079;51.092;3.458;2022-11-22T07:13:42;1.58;;;0.90;;
21833;SDS011;11079;51.092;3.458;2022-11-22T07:16:09;1.33;;;0.50;;
21833;SDS011;11079;51.092;3.458;2022-11-22T07:18:40;1.63;;;1.02;;
21833;SDS011;11079;51.092;3.458;2022-11-22T07:21:16;0.30;;;0.30;;
21833;SDS011;11079;51.092;3.458;2022-11-22T07:23:44;1.35;;;0.50;;
21833;SDS011;11079;51.092;3.458;2022-11-22T07:26:11;0.45;;;0.30;;
21833;SDS011;11079;51.092;3.458;2022-11-22T07:28:37;0.68;;;0.43;;
21833;SDS011;11079;51.092;3.458;2022-11-22T07:31:04;1.05;;;0.43;;
21833;SDS011;11079;51.092;3.458;2022-11-22T07:33:31;1.00;;;0.52;;
21833;SDS011;11079;51.092;3.458;2022-11-22T07:36:04;3.13;;;1.15;;
21833;SDS011;11079;51.092;3.458;2022-11-22T07:38:32;3.20;;;0.90;;
21833;SDS011;11079;51.092;3.458;2022-11-22T07:40:58;5.90;;;1.20;;
21833;SDS011;11079;51.092;3.458;2022-11-22T07:43:23;2.53;;;0.90;;
21833;SDS011;11079;51.092;3.458;2022-11-22T07:45:49;4.18;;;1.10;;
21833;SDS011;11079;51.092;3.458;2022-11-22T07:48:15;3.03;;;1.10;;
21833;SDS011;11079;51.092;3.458;2022-11-22T07:50:40;3.00;;;0.90;;
21833;SDS011;11079;51.092;3.458;2022-11-22T07:53:06;2.28;;;1.02;;
21833;SDS011;11079;51.092;3.458;2022-11-22T07:55:32;5.68;;;1.35;;
21833;SDS011;11079;51.092;3.458;2022-11-22T07:57:58;1.90;;;1.10;;
21833;SDS011;11079;51.092;3.458;2022-11-22T08:00:25;3.40;;;1.40;;
21833;SDS011;11079;51.092;3.458;2022-11-22T08:02:51;3.70;;;1.17;;
21833;SDS011;11079;51.092;3.458;2022-11-22T08:05:17;5.30;;;1.17;;
21833;SDS011;11079;51.092;3.458;2022-11-22T08:07:47;3.38;;;0.90;;
21833;SDS011;11079;51.092;3.458;2022-11-22T08:10:14;2.97;;;1.00;;
21833;SDS011;11079;51.092;3.458;2022-11-22T08:12:40;2.63;;;1.05;;
21833;SDS011;11079;51.092;3.458;2022-11-22T08:15:06;1.63;;;0.98;;
21833;SDS011;11079;51.092;3.458;2022-11-22T08:17:33;3.85;;;1.38;;
21833;SDS011;11079;51.092;3.458;2022-11-22T08:19:59;2.85;;;0.98;;
21833;SDS011;11079;51.092;3.458;2022-11-22T08:22:25;3.55;;;1.10;;
21833;SDS011;11079;51.092;3.458;2022-11-22T08:24:50;5.07;;;1.40;;
21833;SDS011;11079;51.092;3.458;2022-11-22T08:27:16;3.15;;;1.20;;
21833;SDS011;11079;51.092;3.458;2022-11-22T08:29:42;4.25;;;1.30;;
21833;SDS011;11079;51.092;3.458;2022-11-22T08:32:07;3.88;;;1.00;;
21833;SDS011;11079;51.092;3.458;2022-11-22T08:34:33;1.98;;;0.73;;
21833;SDS011;11079;51.092;3.458;2022-11-22T08:36:59;2.47;;;0.93;;
21833;SDS011;11079;51.092;3.458;2022-11-22T08:39:25;2.22;;;0.90;;
21833;SDS011;11079;51.092;3.458;2022-11-22T08:41:51;2.58;;;1.00;;
21833;SDS011;11079;51.092;3.458;2022-11-22T08:44:17;2.00;;;0.90;;
21833;SDS011;11079;51.092;3.458;2022-11-22T08:46:42;3.85;;;1.48;;
21833;SDS011;11079;51.092;3.458;2022-11-22T08:49:11;4.10;;;1.35;;
21833;SDS011;11079;51.092;3.458;2022-11-22T08:51:37;2.58;;;1.10;;
21833;SDS011;11079;51.092;3.458;2022-11-22T08:54:08;2.80;;;1.10;;
21833;SDS011;11079;51.092;3.458;2022-11-22T08:56:37;3.55;;;0.77;;
21833;SDS011;11079;51.092;3.458;2022-11-22T08:59:03;2.72;;;1.35;;
21833;SDS011;11079;51.092;3.458;2022-11-22T09:01:29;3.83;;;0.90;;
21833;SDS011;11079;51.092;3.458;2022-11-22T09:03:54;3.70;;;1.15;;
21833;SDS011;11079;51.092;3.458;2022-11-22T09:06:20;2.85;;;1.00;;
21833;SDS011;11079;51.092;3.458;2022-11-22T09:08:46;3.65;;;1.02;;
21833;SDS011;11079;51.092;3.458;2022-11-22T09:11:12;1.27;;;0.60;;
21833;SDS011;11079;51.092;3.458;2022-11-22T09:13:39;2.88;;;1.05;;
21833;SDS011;11079;51.092;3.458;2022-11-22T09:16:12;2.45;;;1.05;;
21833;SDS011;11079;51.092;3.458;2022-11-22T09:18:40;1.83;;;0.95;;
21833;SDS011;11079;51.092;3.458;2022-11-22T09:21:07;3.25;;;0.90;;
21833;SDS011;11079;51.092;3.458;2022-11-22T09:23:35;1.65;;;1.00;;
21833;SDS011;11079;51.092;3.458;2022-11-22T09:26:08;2.03;;;0.85;;
21833;SDS011;11079;51.092;3.458;2022-11-22T09:28:36;2.50;;;0.90;;
21833;SDS011;11079;51.092;3.458;2022-11-22T09:31:03;1.85;;;0.60;;
21833;SDS011;11079;51.092;3.458;2022-11-22T09:33:31;2.67;;;0.80;;
21833;SDS011;11079;51.092;3.458;2022-11-22T09:36:02;1.40;;;0.90;;
21833;SDS011;11079;51.092;3.458;2022-11-22T09:38:33;3.13;;;0.80;;
21833;SDS011;11079;51.092;3.458;2022-11-22T09:41:00;3.47;;;1.10;;
21833;SDS011;11079;51.092;3.458;2022-11-22T09:51:41;2.75;;;1.30;;
21833;SDS011;11079;51.092;3.458;2022-11-22T09:54:42;2.97;;;1.15;;
21833;SDS011;11079;51.092;3.458;2022-11-22T09:57:28;1.65;;;0.80;;
21833;SDS011;11079;51.092;3.458;2022-11-22T10:00:02;2.83;;;0.98;;
21833;SDS011;11079;51.092;3.458;2022-11-22T10:02:36;1.98;;;1.05;;
21833;SDS011;11079;51.092;3.458;2022-11-22T10:05:12;2.53;;;1.00;;
21833;SDS011;11079;51.092;3.458;2022-11-22T10:07:44;1.50;;;0.70;;
21833;SDS011;11079;51.092;3.458;2022-11-22T10:10:17;1.48;;;1.10;;
21833;SDS011;11079;51.092;3.458;2022-11-22T10:13:24;2.67;;;0.80;;
21833;SDS011;11079;51.092;3.458;2022-11-22T10:19:33;3.90;;;0.73;;
21833;SDS011;11079;51.092;3.458;2022-11-22T10:21:44;2.95;;;1.23;;
21833;SDS011;11079;51.092;3.458;2022-11-22T10:24:13;8.20;;;1.33;;
21833;SDS011;11079;51.092;3.458;2022-11-22T10:26:40;6.15;;;1.00;;
21833;SDS011;11079;51.092;3.458;2022-11-22T10:37:48;2.40;;;0.95;;
21833;SDS011;11079;51.092;3.458;2022-11-22T10:54:14;1.73;;;0.60;;
21833;SDS011;11079;51.092;3.458;2022-11-22T10:57:03;1.10;;;0.68;;
21833;SDS011;11079;51.092;3.458;2022-11-22T10:59:46;2.97;;;0.80;;
21833;SDS011;11079;51.092;3.458;2022-11-22T11:02:40;2.10;;;0.57;;
21833;SDS011;11079;51.092;3.458;2022-11-22T11:05:18;2.00;;;0.77;;
21833;SDS011;11079;51.092;3.458;2022-11-22T11:07:47;1.60;;;0.73;;
21833;SDS011;11079;51.092;3.458;2022-11-22T11:10:19;2.70;;;0.95;;
21833;SDS011;11079;51.092;3.458;2022-11-22T11:12:49;2.17;;;0.77;;
21833;SDS011;11079;51.092;3.458;2022-11-22T11:17:52;2.08;;;0.73;;
21833;SDS011;11079;51.092;3.458;2022-11-22T11:20:24;3.08;;;0.85;;
21833;SDS011;11079;51.092;3.458;2022-11-22T11:22:51;2.22;;;0.73;;
21833;SDS011;11079;51.092;3.458;2022-11-22T11:28:05;1.38;;;0.68;;
21833;SDS011;11079;51.092;3.458;2022-11-22T11:33:32;2.30;;;0.70;;
21833;SDS011;11079;51.092;3.458;2022-11-22T11:36:18;4.70;;;1.00;;
21833;SDS011;11079;51.092;3.458;2022-11-22T11:43:59;1.45;;;0.65;;
21833;SDS011;11079;51.092;3.458;2022-11-22T11:46:27;2.20;;;0.60;;
21833;SDS011;11079;51.092;3.458;2022-11-22T11:49:14;1.77;;;0.65;;
21833;SDS011;11079;51.092;3.458;2022-11-22T11:51:42;2.70;;;0.50;;
21833;SDS011;11079;51.092;3.458;2022-11-22T11:54:16;1.23;;;0.80;;
21833;SDS011;11079;51.092;3.458;2022-11-22T11:59:15;1.70;;;0.75;;
21833;SDS011;11079;51.092;3.458;2022-11-22T12:04:25;2.17;;;0.80;;
21833;SDS011;11079;51.092;3.458;2022-11-22T12:06:55;1.05;;;0.50;;
21833;SDS011;11079;51.092;3.458;2022-11-22T12:09:27;2.25;;;0.50;;
21833;SDS011;11079;51.092;3.458;2022-11-22T12:11:54;1.88;;;0.85;;
21833;SDS011;11079;51.092;3.458;2022-11-22T12:14:26;1.20;;;0.40;;
21833;SDS011;11079;51.092;3.458;2022-11-22T12:16:54;1.77;;;0.57;;
21833;SDS011;11079;51.092;3.458;2022-11-22T12:22:34;1.38;;;0.60;;
21833;SDS011;11079;51.092;3.458;2022-11-22T12:25:15;2.15;;;0.73;;
21833;SDS011;11079;51.092;3.458;2022-11-22T12:27:54;1.05;;;0.50;;
21833;SDS011;11079;51.092;3.458;2022-11-22T12:30:20;1.20;;;0.50;;
21833;SDS011;11079;51.092;3.458;2022-11-22T12:32:51;1.02;;;0.60;;
21833;SDS011;11079;51.092;3.458;2022-11-22T12:35:25;1.33;;;0.60;;
21833;SDS011;11079;51.092;3.458;2022-11-22T12:37:54;1.45;;;0.73;;
21833;SDS011;11079;51.092;3.458;2022-11-22T12:40:31;1.58;;;0.70;;
21833;SDS011;11079;51.092;3.458;2022-11-22T12:43:15;2.45;;;0.50;;
21833;SDS011;11079;51.092;3.458;2022-11-22T12:45:50;1.10;;;0.60;;
21833;SDS011;11079;51.092;3.458;2022-11-22T12:48:35;1.67;;;0.50;;
21833;SDS011;11079;51.092;3.458;2022-11-22T12:51:14;1.48;;;0.45;;
21833;SDS011;11079;51.092;3.458;2022-11-22T12:54:04;1.88;;;0.80;;
21833;SDS011;11079;51.092;3.458;2022-11-22T12:56:42;2.65;;;0.80;;
21833;SDS011;11079;51.092;3.458;2022-11-22T13:02:08;1.17;;;0.60;;
21833;SDS011;11079;51.092;3.458;2022-11-22T13:07:20;1.20;;;0.60;;
21833;SDS011;11079;51.092;3.458;2022-11-22T13:10:22;1.20;;;0.50;;
21833;SDS011;11079;51.092;3.458;2022-11-22T13:13:03;0.88;;;0.60;;
21833;SDS011;11079;51.092;3.458;2022-11-22T13:15:34;1.27;;;0.68;;
21833;SDS011;11079;51.092;3.458;2022-11-22T13:18:06;1.65;;;0.98;;
21833;SDS011;11079;51.092;3.458;2022-11-22T13:20:35;1.05;;;0.60;;
21833;SDS011;11079;51.092;3.458;2022-11-22T13:23:20;2.38;;;0.50;;
21833;SDS011;11079;51.092;3.458;2022-11-22T13:26:11;2.85;;;0.52;;
21833;SDS011;11079;51.092;3.458;2022-11-22T13:28:52;1.30;;;0.50;;
21833;SDS011;11079;51.092;3.458;2022-11-22T13:31:19;0.93;;;0.73;;
21833;SDS011;11079;51.092;3.458;2022-11-22T13:38:53;2.72;;;0.50;;
21833;SDS011;11079;51.092;3.458;2022-11-22T13:44:14;2.38;;;0.60;;
21833;SDS011;11079;51.092;3.458;2022-11-22T13:46:53;0.65;;;0.45;;
21833;SDS011;11079;51.092;3.458;2022-11-22T13:51:55;0.60;;;0.40;;
21833;SDS011;11079;51.092;3.458;2022-11-22T13:57:03;2.60;;;0.93;;
21833;SDS011;11079;51.092;3.458;2022-11-22T13:59:44;0.73;;;0.40;;
21833;SDS011;11079;51.092;3.458;2022-11-22T14:02:20;3.20;;;1.48;;
21833;SDS011;11079;51.092;3.458;2022-11-22T14:04:52;1.48;;;0.50;;
21833;SDS011;11079;51.092;3.458;2022-11-22T14:07:21;1.25;;;0.73;;
21833;SDS011;11079;51.092;3.458;2022-11-22T14:14:49;35.97;;;9.35;;
21833;SDS011;11079;51.092;3.458;2022-11-22T14:20:41;30.00;;;7.43;;
21833;SDS011;11079;51.092;3.458;2022-11-22T14:26:20;31.10;;;8.65;;
21833;SDS011;11079;51.092;3.458;2022-11-22T14:31:42;26.88;;;7.32;;
21833;SDS011;11079;51.092;3.458;2022-11-22T14:47:35;16.00;;;5.93;;
21833;SDS011;11079;51.092;3.458;2022-11-22T14:52:56;16.92;;;6.13;;
21833;SDS011;11079;51.092;3.458;2022-11-22T14:55:25;19.65;;;5.95;;
21833;SDS011;11079;51.092;3.458;2022-11-22T14:57:56;14.85;;;5.18;;
21833;SDS011;11079;51.092;3.458;2022-11-22T15:00:25;20.35;;;5.97;;
21833;SDS011;11079;51.092;3.458;2022-11-22T15:13:43;17.17;;;4.60;;
21833;SDS011;11079;51.092;3.458;2022-11-22T15:16:24;19.67;;;4.68;;
21833;SDS011;11079;51.092;3.458;2022-11-22T15:18:52;15.45;;;4.93;;
21833;SDS011;11079;51.092;3.458;2022-11-22T15:21:29;15.60;;;4.25;;
21833;SDS011;11079;51.092;3.458;2022-11-22T15:23:57;20.17;;;4.30;;
21833;SDS011;11079;51.092;3.458;2022-11-22T15:26:24;10.48;;;4.28;;
21833;SDS011;11079;51.092;3.458;2022-11-22T15:28:52;15.98;;;4.38;;
21833;SDS011;11079;51.092;3.458;2022-11-22T15:31:27;12.00;;;4.25;;
21833;SDS011;11079;51.092;3.458;2022-11-22T15:33:58;10.93;;;3.50;;
21833;SDS011;11079;51.092;3.458;2022-11-22T15:38:50;13.75;;;4.07;;
21833;SDS011;11079;51.092;3.458;2022-11-22T15:41:18;12.48;;;4.18;;
21833;SDS011;11079;51.092;3.458;2022-11-22T15:43:48;15.43;;;4.00;;
21833;SDS011;11079;51.092;3.458;2022-11-22T15:46:16;14.80;;;3.97;;
21833;SDS011;11079;51.092;3.458;2022-11-22T15:48:45;12.43;;;4.00;;
21833;SDS011;11079;51.092;3.458;2022-11-22T15:53:38;16.25;;;4.30;;
21833;SDS011;11079;51.092;3.458;2022-11-22T15:58:43;12.43;;;3.47;;
21833;SDS011;11079;51.092;3.458;2022-11-22T16:01:13;10.48;;;3.20;;
21833;SDS011;11079;51.092;3.458;2022-11-22T16:03:41;9.20;;;3.10;;
21833;SDS011;11079;51.092;3.458;2022-11-22T16:06:14;10.35;;;3.17;;
21833;SDS011;11079;51.092;3.458;2022-11-22T16:08:49;7.90;;;3.35;;
21833;SDS011;11079;51.092;3.458;2022-11-22T16:11:27;11.38;;;3.40;;
21833;SDS011;11079;51.092;3.458;2022-11-22T16:13:54;8.13;;;3.85;;
21833;SDS011;11079;51.092;3.458;2022-11-22T16:16:24;11.43;;;3.83;;
21833;SDS011;11079;51.092;3.458;2022-11-22T16:21:54;10.50;;;3.15;;
21833;SDS011;11079;51.092;3.458;2022-11-22T16:24:28;6.50;;;2.92;;
21833;SDS011;11079;51.092;3.458;2022-11-22T16:26:58;13.00;;;3.90;;
21833;SDS011;11079;51.092;3.458;2022-11-22T16:29:33;8.88;;;3.55;;
21833;SDS011;11079;51.092;3.458;2022-11-22T16:32:10;9.85;;;3.58;;
21833;SDS011;11079;51.092;3.458;2022-11-22T16:34:40;9.27;;;3.13;;
21833;SDS011;11079;51.092;3.458;2022-11-22T16:39:49;7.70;;;2.80;;
21833;SDS011;11079;51.092;3.458;2022-11-22T16:42:14;9.32;;;3.10;;
21833;SDS011;11079;51.092;3.458;2022-11-22T16:44:40;9.68;;;3.10;;
21833;SDS011;11079;51.092;3.458;2022-11-22T16:47:08;6.88;;;2.90;;
21833;SDS011;11079;51.092;3.458;2022-11-22T16:49:42;10.25;;;3.53;;
21833;SDS011;11079;51.092;3.458;2022-11-22T16:52:10;8.70;;;2.90;;
21833;SDS011;11079;51.092;3.458;2022-11-22T16:54:36;7.00;;;2.80;;
21833;SDS011;11079;51.092;3.458;2022-11-22T16:57:08;6.45;;;2.60;;
21833;SDS011;11079;51.092;3.458;2022-11-22T16:59:37;6.03;;;2.47;;
21833;SDS011;11079;51.092;3.458;2022-11-22T17:02:05;7.32;;;2.72;;
21833;SDS011;11079;51.092;3.458;2022-11-22T17:04:37;6.55;;;2.40;;
21833;SDS011;11079;51.092;3.458;2022-11-22T17:07:06;4.80;;;2.38;;
21833;SDS011;11079;51.092;3.458;2022-11-22T17:09:33;7.50;;;2.50;;
21833;SDS011;11079;51.092;3.458;2022-11-22T17:11:59;8.43;;;2.78;;
21833;SDS011;11079;51.092;3.458;2022-11-22T17:14:25;5.25;;;2.22;;
21833;SDS011;11079;51.092;3.458;2022-11-22T17:16:50;6.75;;;2.45;;